Time;durP1;ratioP1;P1;durP2;ratioP2;P2;SDS_P1;SDS_P2;PMS_P1;PMS_P2;Temp;Humidity;BMP_temperature;BMP_pressure;BME280_temperature;BME280_humidity;BME280_pressure;Samples;Min_cycle;Max_cycle;Signal;HPM_P1;HPM_P2
2023/01/15 00:00:20;;;;;;;5.38;2.88;;;22.90;42.00;;;;;;6080201;28;81120;-51
2023/01/15 00:03:21;;;;;;;5.00;2.63;;;22.90;42.10;;;;;;6081326;28;81187;-49
2023/01/15 00:06:21;;;;;;;5.82;3.00;;;23.00;42.10;;;;;;6080564;28;83358;-52
2023/01/15 00:09:22;;;;;;;6.47;3.15;;;23.00;42.50;;;;;;6078524;28;80404;-54
2023/01/15 00:12:22;;;;;;;5.40;3.03;;;23.00;42.10;;;;;;6078724;28;80461;-53
2023/01/15 00:15:23;;;;;;;7.10;3.05;;;23.00;42.10;;;;;;6078429;28;81040;-51
2023/01/15 00:18:23;;;;;;;5.32;3.25;;;22.90;42.00;;;;;;6079862;28;81536;-49
2023/01/15 00:21:24;;;;;;;5.03;2.80;;;22.90;41.90;;;;;;6079331;28;80361;-49
2023/01/15 00:27:44;;;;;;;4.50;2.80;;;22.90;42.20;;;;;;6068525;28;80435;-50
2023/01/15 00:30:45;;;;;;;5.60;2.40;;;22.90;41.80;;;;;;6079951;28;80568;-52
2023/01/15 00:33:45;;;;;;;5.30;2.67;;;22.90;41.70;;;;;;6077845;28;80612;-49
2023/01/15 00:36:46;;;;;;;4.78;2.28;;;22.90;41.90;;;;;;6079562;28;80775;-50
2023/01/15 00:39:46;;;;;;;2.97;2.03;;;22.90;42.30;;;;;;6079467;28;80588;-51
2023/01/15 00:42:47;;;;;;;3.63;2.40;;;22.90;42.10;;;;;;6078049;28;80615;-51
2023/01/15 00:45:48;;;;;;;3.17;2.05;;;22.90;41.90;;;;;;6078733;28;80849;-52
2023/01/15 00:48:48;;;;;;;5.88;2.88;;;22.90;41.70;;;;;;6081146;28;81366;-52
2023/01/15 00:51:49;;;;;;;3.05;2.10;;;22.90;41.80;;;;;;6070013;28;80422;-49
2023/01/15 00:54:52;;;;;;;2.53;1.80;;;22.90;42.00;;;;;;6070872;28;80986;-52
2023/01/15 00:57:53;;;;;;;4.05;2.20;;;22.90;41.60;;;;;;6056151;28;80856;-48
2023/01/15 01:00:54;;;;;;;3.70;2.53;;;22.90;41.80;;;;;;6055471;28;81750;-48
2023/01/15 01:03:54;;;;;;;2.40;1.50;;;22.90;41.60;;;;;;6055944;28;81673;-51
2023/01/15 01:06:56;;;;;;;2.78;2.00;;;22.90;41.70;;;;;;6068941;28;80916;-49
2023/01/15 01:09:57;;;;;;;2.80;1.80;;;22.90;41.40;;;;;;6055192;28;83648;-50
2023/01/15 01:12:58;;;;;;;2.63;1.90;;;22.90;41.40;;;;;;6066179;28;80628;-50
2023/01/15 01:15:58;;;;;;;3.22;1.95;;;22.90;41.20;;;;;;6057010;28;80903;-47
2023/01/15 01:18:59;;;;;;;3.95;1.90;;;22.90;41.40;;;;;;6061905;28;81447;-50
2023/01/15 01:22:00;;;;;;;2.78;1.98;;;22.90;40.90;;;;;;6062374;28;82283;-48
2023/01/15 01:25:00;;;;;;;2.53;1.90;;;22.90;41.20;;;;;;6057117;28;81775;-49
2023/01/15 01:28:01;;;;;;;2.15;1.70;;;22.90;41.10;;;;;;6057844;28;81543;-49
2023/01/15 01:31:01;;;;;;;2.20;1.63;;;22.90;41.00;;;;;;6061963;28;82779;-51
2023/01/15 01:34:02;;;;;;;3.30;1.90;;;22.90;41.50;;;;;;6065103;28;80406;-47
2023/01/15 01:37:02;;;;;;;2.20;1.55;;;22.90;40.90;;;;;;6054746;28;81287;-49
2023/01/15 01:40:03;;;;;;;1.67;1.40;;;22.90;41.10;;;;;;6055975;28;81795;-48
2023/01/15 01:43:03;;;;;;;5.90;2.25;;;22.80;40.90;;;;;;6055156;28;80945;-47
2023/01/15 01:46:04;;;;;;;3.30;1.80;;;22.80;40.40;;;;;;6056747;28;81667;-47
2023/01/15 01:49:04;;;;;;;3.65;1.73;;;22.80;40.70;;;;;;6056022;28;80207;-48
2023/01/15 01:52:05;;;;;;;1.67;1.35;;;22.80;40.80;;;;;;6056462;28;80456;-47
2023/01/15 01:55:06;;;;;;;2.95;1.52;;;22.80;40.80;;;;;;6060826;28;82404;-48
2023/01/15 01:58:06;;;;;;;2.83;1.48;;;22.70;40.60;;;;;;6067149;28;80731;-47
2023/01/15 02:01:07;;;;;;;3.03;1.70;;;22.70;40.40;;;;;;6075726;28;83900;-48
2023/01/15 02:04:08;;;;;;;1.88;1.50;;;22.70;40.40;;;;;;6077959;28;81734;-48
2023/01/15 02:07:08;;;;;;;2.88;1.50;;;22.70;40.60;;;;;;6077220;28;80679;-51
2023/01/15 02:10:11;;;;;;;3.83;1.63;;;22.70;40.40;;;;;;6076986;28;83319;-50
2023/01/15 02:13:11;;;;;;;2.78;1.65;;;22.70;40.50;;;;;;6077150;28;80750;-53
2023/01/15 02:16:12;;;;;;;2.75;1.65;;;22.70;40.50;;;;;;6077409;28;80870;-48
2023/01/15 02:19:13;;;;;;;3.88;1.80;;;22.70;40.70;;;;;;6078040;28;83288;-50
2023/01/15 02:22:13;;;;;;;4.28;1.65;;;22.70;40.20;;;;;;6077202;28;81533;-50
2023/01/15 02:25:14;;;;;;;2.20;1.50;;;22.70;40.30;;;;;;6076697;28;80575;-51
2023/01/15 02:28:14;;;;;;;2.30;1.73;;;22.70;40.30;;;;;;6075621;28;83514;-48
2023/01/15 02:31:15;;;;;;;2.22;1.50;;;22.70;40.80;;;;;;6055399;28;81565;-49
2023/01/15 02:34:16;;;;;;;1.85;1.48;;;22.70;40.50;;;;;;6077049;28;83178;-52
2023/01/15 02:37:17;;;;;;;2.80;1.60;;;22.70;40.40;;;;;;6076700;28;80753;-51
2023/01/15 02:40:18;;;;;;;3.00;1.83;;;22.70;40.30;;;;;;6081610;28;80871;-49
2023/01/15 02:43:19;;;;;;;2.45;1.50;;;22.70;40.70;;;;;;6071997;28;82060;-50
2023/01/15 02:46:20;;;;;;;1.75;1.33;;;22.70;40.80;;;;;;6079857;28;83420;-49
2023/01/15 02:49:22;;;;;;;2.25;1.63;;;22.70;40.40;;;;;;6080409;28;81465;-50
2023/01/15 02:52:22;;;;;;;2.08;1.50;;;22.70;40.60;;;;;;6073482;28;80613;-50
2023/01/15 02:55:23;;;;;;;9.48;1.90;;;22.70;40.80;;;;;;6073283;28;82692;-48
2023/01/15 02:58:25;;;;;;;1.30;1.20;;;22.70;40.50;;;;;;6056228;28;83555;-47
2023/01/15 03:01:25;;;;;;;1.98;1.48;;;22.70;40.70;;;;;;6056835;28;82463;-48
2023/01/15 03:04:26;;;;;;;3.22;1.55;;;22.70;40.80;;;;;;6060076;28;83833;-51
2023/01/15 03:07:26;;;;;;;1.83;1.40;;;22.70;40.20;;;;;;6057359;28;83633;-52
2023/01/15 03:10:28;;;;;;;1.73;1.42;;;22.70;40.10;;;;;;6078043;28;83348;-47
2023/01/15 03:13:29;;;;;;;2.42;1.63;;;22.70;40.80;;;;;;6080294;28;81542;-49
2023/01/15 03:16:39;;;;;;;2.15;1.55;;;22.70;40.30;;;;;;6079039;28;83263;-50
2023/01/15 03:19:40;;;;;;;1.77;1.52;;;22.70;40.80;;;;;;6079516;28;83059;-50
2023/01/15 03:22:45;;;;;;;3.08;1.40;;;22.70;40.60;;;;;;6077931;28;80838;-50
2023/01/15 03:25:45;;;;;;;1.95;1.45;;;22.70;40.40;;;;;;6079595;28;80904;-50
2023/01/15 03:28:46;;;;;;;1.40;1.30;;;22.70;40.60;;;;;;6077648;28;81309;-50
2023/01/15 03:31:48;;;;;;;2.83;1.77;;;22.70;40.80;;;;;;6061051;28;83200;-49
2023/01/15 03:34:49;;;;;;;1.88;1.70;;;22.70;40.50;;;;;;6079728;28;82369;-51
2023/01/15 03:37:52;;;;;;;3.20;1.73;;;22.70;40.60;;;;;;6071443;28;83032;-51
2023/01/15 03:40:53;;;;;;;1.42;1.20;;;22.70;40.50;;;;;;6055434;28;82652;-53
2023/01/15 03:43:54;;;;;;;2.20;1.58;;;22.70;40.70;;;;;;6066093;28;82731;-50
2023/01/15 03:46:54;;;;;;;2.58;1.60;;;22.70;40.40;;;;;;6057018;28;81768;-52
2023/01/15 03:49:56;;;;;;;2.10;1.40;;;22.70;40.40;;;;;;6057063;28;83214;-48
2023/01/15 03:53:09;;;;;;;1.83;1.30;;;22.60;40.10;;;;;;6069419;28;83368;-51
2023/01/15 03:56:15;;;;;;;1.48;1.38;;;22.60;40.10;;;;;;6073206;28;81498;-48
2023/01/15 03:59:19;;;;;;;1.48;1.23;;;22.60;40.20;;;;;;6054997;28;83426;-51
2023/01/15 04:02:26;;;;;;;2.10;1.60;;;22.60;40.20;;;;;;6061815;28;83480;-48
2023/01/15 04:05:27;;;;;;;4.10;2.35;;;22.70;40.00;;;;;;6056723;28;81319;-53
2023/01/15 04:08:27;;;;;;;2.60;1.42;;;22.60;40.30;;;;;;6064354;28;80330;-50
2023/01/15 04:11:28;;;;;;;1.80;1.60;;;22.60;40.10;;;;;;6059590;28;83853;-54
2023/01/15 04:14:35;;;;;;;2.10;1.55;;;22.70;40.00;;;;;;6057120;28;87817;-53
2023/01/15 04:17:41;;;;;;;1.75;1.30;;;22.70;39.90;;;;;;6059772;28;83078;-53
2023/01/15 04:20:41;;;;;;;1.73;1.60;;;22.60;40.20;;;;;;6056465;28;82136;-51
2023/01/15 04:23:42;;;;;;;2.60;1.45;;;22.70;40.30;;;;;;6056831;28;81970;-51
2023/01/15 04:26:43;;;;;;;2.60;2.05;;;22.70;40.30;;;;;;6056795;28;81410;-51
2023/01/15 04:29:43;;;;;;;3.25;1.58;;;22.70;40.30;;;;;;6056929;28;80897;-52
2023/01/15 04:32:44;;;;;;;2.40;1.70;;;22.60;39.70;;;;;;6079081;28;82003;-52
2023/01/15 04:35:46;;;;;;;1.95;1.70;;;22.60;39.60;;;;;;6079871;28;80380;-49
2023/01/15 04:38:46;;;;;;;1.58;1.48;;;22.70;40.00;;;;;;6078067;28;80680;-52
2023/01/15 04:45:06;;;;;;;2.50;1.63;;;22.60;40.20;;;;;;6070814;28;80664;-51
2023/01/15 04:48:06;;;;;;;1.88;1.45;;;22.60;40.00;;;;;;6080399;28;80957;-49
2023/01/15 04:51:07;;;;;;;2.28;1.67;;;22.60;39.40;;;;;;6079420;28;81925;-50
2023/01/15 04:54:08;;;;;;;1.80;1.65;;;22.60;39.40;;;;;;6071389;28;80922;-49
2023/01/15 04:57:08;;;;;;;2.28;1.75;;;22.60;39.60;;;;;;6076918;28;82772;-50
2023/01/15 05:00:09;;;;;;;2.50;1.60;;;22.60;39.40;;;;;;6078405;28;80423;-49
2023/01/15 05:03:09;;;;;;;1.40;1.30;;;22.60;39.50;;;;;;6078055;28;80254;-50
2023/01/15 05:06:10;;;;;;;2.83;1.77;;;22.60;39.50;;;;;;6079193;28;80814;-50
2023/01/15 05:09:10;;;;;;;1.98;1.50;;;22.60;39.50;;;;;;6078323;28;81792;-52
2023/01/15 05:12:11;;;;;;;2.05;1.60;;;22.60;39.50;;;;;;6061349;28;83500;-52
2023/01/15 05:15:11;;;;;;;1.60;1.40;;;22.60;39.80;;;;;;6065479;28;80682;-50
2023/01/15 05:18:13;;;;;;;1.58;1.40;;;22.60;39.60;;;;;;6066286;28;87124;-53
2023/01/15 05:21:14;;;;;;;1.70;1.40;;;22.60;39.70;;;;;;6079273;28;80357;-52
2023/01/15 05:24:14;;;;;;;2.25;1.50;;;22.60;39.70;;;;;;6077902;28;80726;-50
2023/01/15 05:27:15;;;;;;;1.92;1.27;;;22.60;39.50;;;;;;6078813;28;80729;-53
2023/01/15 05:30:16;;;;;;;4.57;1.60;;;22.60;39.60;;;;;;6062996;28;80602;-51
2023/01/15 05:33:16;;;;;;;2.30;1.70;;;22.60;39.50;;;;;;6074964;28;80907;-52
2023/01/15 05:36:17;;;;;;;1.85;1.40;;;22.60;39.80;;;;;;6077777;28;82703;-59
2023/01/15 05:39:17;;;;;;;5.30;1.80;;;22.60;40.00;;;;;;6053117;28;80911;-53
2023/01/15 05:42:18;;;;;;;3.65;1.70;;;22.60;39.80;;;;;;6076035;28;80769;-51
2023/01/15 05:45:18;;;;;;;1.65;1.50;;;22.60;40.00;;;;;;6064515;28;80209;-53
2023/01/15 05:48:19;;;;;;;2.00;1.50;;;22.70;40.00;;;;;;6064831;28;83843;-54
2023/01/15 05:51:19;;;;;;;1.85;1.65;;;22.70;40.80;;;;;;6057195;28;81183;-51
2023/01/15 05:54:20;;;;;;;2.13;1.58;;;22.70;41.10;;;;;;6052276;28;80377;-55
2023/01/15 05:57:21;;;;;;;1.90;1.40;;;22.70;41.80;;;;;;6051203;28;80746;-54
2023/01/15 06:00:22;;;;;;;1.55;1.45;;;22.70;42.00;;;;;;6056726;28;80980;-53
2023/01/15 06:03:22;;;;;;;1.55;1.42;;;22.70;41.90;;;;;;6054570;28;80640;-52
2023/01/15 06:06:23;;;;;;;3.40;1.60;;;22.80;41.80;;;;;;6057452;28;81217;-57
2023/01/15 06:09:23;;;;;;;2.33;1.80;;;22.80;42.10;;;;;;6064430;28;80522;-53
2023/01/15 06:12:24;;;;;;;8.65;1.73;;;22.80;41.80;;;;;;6080973;28;82448;-54
2023/01/15 06:15:24;;;;;;;2.15;1.65;;;22.80;41.60;;;;;;6074114;28;81161;-54
2023/01/15 06:18:25;;;;;;;2.65;2.15;;;22.80;41.70;;;;;;6070000;28;85230;-52
2023/01/15 06:21:25;;;;;;;2.15;1.27;;;22.80;41.80;;;;;;6057944;28;80444;-54
2023/01/15 06:24:26;;;;;;;4.43;2.35;;;22.80;42.30;;;;;;6063202;28;80404;-55
2023/01/15 06:27:26;;;;;;;2.65;1.70;;;22.80;42.70;;;;;;6059396;28;82513;-55
2023/01/15 06:30:27;;;;;;;7.38;1.90;;;22.80;42.50;;;;;;6058592;28;81420;-56
2023/01/15 06:33:27;;;;;;;4.65;1.80;;;22.80;42.80;;;;;;6071451;28;80783;-55
2023/01/15 06:36:28;;;;;;;4.72;1.92;;;22.80;42.80;;;;;;6072685;28;80697;-55
2023/01/15 06:39:29;;;;;;;3.15;1.75;;;22.80;43.30;;;;;;6068654;28;81747;-53
2023/01/15 06:49:08;;;;;;;4.28;1.80;;;22.80;42.90;;;;;;6063634;28;84967;-58
2023/01/15 06:52:08;;;;;;;2.78;1.58;;;22.80;43.00;;;;;;6053851;28;80669;-54
2023/01/15 06:55:10;;;;;;;3.53;1.50;;;22.80;43.10;;;;;;6045613;28;80697;-53
2023/01/15 06:58:10;;;;;;;1.40;1.30;;;22.80;42.60;;;;;;6063295;28;80541;-56
2023/01/15 07:01:11;;;;;;;4.00;1.50;;;22.90;42.70;;;;;;6057808;28;81234;-57
2023/01/15 07:04:12;;;;;;;1.30;1.20;;;22.90;42.60;;;;;;6061650;28;80741;-56
2023/01/15 07:07:12;;;;;;;5.40;1.75;;;22.90;42.50;;;;;;6056024;28;81724;-58
2023/01/15 07:10:13;;;;;;;3.83;1.60;;;22.90;42.50;;;;;;6049073;28;86756;-58
2023/01/15 07:13:13;;;;;;;2.95;1.48;;;22.90;42.60;;;;;;6047908;28;80641;-57
2023/01/15 07:16:29;;;;;;;3.00;1.45;;;22.90;42.60;;;;;;6052227;28;80707;-57
2023/01/15 07:19:30;;;;;;;1.80;1.40;;;22.90;42.30;;;;;;6066537;28;81110;-57
2023/01/15 07:22:30;;;;;;;3.63;1.55;;;22.90;42.40;;;;;;6060940;28;81614;-58
2023/01/15 07:25:31;;;;;;;4.10;1.80;;;22.90;41.70;;;;;;6073810;28;80411;-60
2023/01/15 07:28:31;;;;;;;2.55;1.50;;;22.90;41.80;;;;;;6078221;28;80512;-58
2023/01/15 07:31:32;;;;;;;7.03;2.03;;;22.90;39.90;;;;;;6069122;28;80527;-58
2023/01/15 07:34:32;;;;;;;3.92;1.73;;;22.80;41.40;;;;;;6073929;28;81726;-59
2023/01/15 07:37:33;;;;;;;3.83;1.65;;;22.80;40.90;;;;;;6076836;28;80904;-60
2023/01/15 07:40:34;;;;;;;4.65;1.50;;;22.90;41.40;;;;;;6066001;28;80522;-58
2023/01/15 07:50:13;;;;;;;3.33;1.85;;;22.90;41.20;;;;;;6060301;28;80663;-57
2023/01/15 07:53:14;;;;;;;5.47;1.70;;;22.90;40.90;;;;;;6061402;28;81278;-57
2023/01/15 07:56:14;;;;;;;9.30;1.73;;;22.90;40.90;;;;;;6054922;28;80761;-57
2023/01/15 07:59:15;;;;;;;2.67;1.48;;;22.90;41.30;;;;;;6077179;28;81319;-59
2023/01/15 08:02:16;;;;;;;3.08;1.77;;;22.90;41.30;;;;;;6075564;28;82360;-59
2023/01/15 08:05:16;;;;;;;2.53;1.67;;;22.90;41.20;;;;;;6067748;28;84207;-59
2023/01/15 08:08:17;;;;;;;1.77;1.50;;;22.90;41.20;;;;;;6074503;28;80431;-57
2023/01/15 08:17:56;;;;;;;163.25;90.90;;;23.00;42.10;;;;;;6066202;28;84954;-58
2023/01/15 08:20:56;;;;;;;191.35;104.97;;;23.00;42.20;;;;;;6068843;28;83850;-58
2023/01/15 08:23:57;;;;;;;256.30;134.80;;;23.00;42.20;;;;;;6046303;28;90405;-58
2023/01/15 08:26:57;;;;;;;204.43;110.82;;;23.00;42.30;;;;;;6053311;28;88043;-59
2023/01/15 08:29:58;;;;;;;184.10;92.88;;;23.10;41.90;;;;;;6057271;28;87168;-56
2023/01/15 08:32:59;;;;;;;153.27;78.43;;;23.10;41.50;;;;;;6071123;28;87445;-56
2023/01/15 08:35:59;;;;;;;119.32;60.25;;;23.10;41.90;;;;;;6073397;28;83321;-56
2023/01/15 08:39:00;;;;;;;106.97;58.20;;;23.20;41.80;;;;;;6071023;28;85070;-55
2023/01/15 08:42:00;;;;;;;150.68;81.80;;;23.20;41.50;;;;;;6063297;28;83450;-58
2023/01/15 08:45:01;;;;;;;198.73;106.95;;;23.10;41.90;;;;;;6071866;28;85984;-57
2023/01/15 08:48:01;;;;;;;212.23;110.03;;;23.10;41.80;;;;;;6070441;28;85641;-60
2023/01/15 08:51:02;;;;;;;147.20;75.38;;;23.10;42.00;;;;;;6060588;28;86553;-61
2023/01/15 08:54:02;;;;;;;120.47;63.88;;;23.00;39.50;;;;;;6046992;28;85971;-59
2023/01/15 08:57:12;;;;;;;107.78;59.47;;;22.90;39.60;;;;;;6180877;28;75357;-60
2023/01/15 09:00:12;;;;;;;100.38;50.53;;;23.00;40.40;;;;;;6099816;28;84295;-64
2023/01/15 09:03:13;;;;;;;88.70;45.33;;;23.00;41.00;;;;;;6105131;28;83431;-70
2023/01/15 09:06:14;;;;;;;86.90;45.47;;;23.00;40.90;;;;;;6107517;28;85638;-61
2023/01/15 09:09:14;;;;;;;73.72;39.25;;;23.00;41.30;;;;;;6105626;28;83592;-63
2023/01/15 09:12:15;;;;;;;74.18;37.38;;;23.00;41.20;;;;;;6118306;28;84828;-62
2023/01/15 09:15:15;;;;;;;62.63;33.67;;;23.00;41.80;;;;;;6102894;28;83799;-64
2023/01/15 09:18:18;;;;;;;64.07;30.45;;;23.00;42.70;;;;;;6102079;28;84659;-63
2023/01/15 09:21:19;;;;;;;58.85;28.13;;;23.00;42.20;;;;;;6100039;28;83559;-62
2023/01/15 09:24:19;;;;;;;47.78;25.98;;;23.00;42.10;;;;;;6092373;28;87187;-66
2023/01/15 09:27:20;;;;;;;45.10;24.33;;;23.00;42.30;;;;;;6090716;28;85902;-66
2023/01/15 09:30:20;;;;;;;40.63;20.65;;;23.00;42.50;;;;;;6095599;28;87255;-67
2023/01/15 09:33:21;;;;;;;42.35;19.73;;;23.10;42.30;;;;;;6092590;28;86553;-66
2023/01/15 09:36:21;;;;;;;40.42;19.05;;;23.10;42.00;;;;;;6095282;28;84697;-65
2023/01/15 09:39:22;;;;;;;32.55;16.92;;;23.10;42.00;;;;;;6088249;28;84424;-64
2023/01/15 09:42:22;;;;;;;28.65;15.88;;;23.10;41.80;;;;;;6100545;28;85666;-66
2023/01/15 09:45:23;;;;;;;25.77;14.93;;;23.10;41.70;;;;;;6114559;28;84453;-66
2023/01/15 09:48:24;;;;;;;27.85;14.68;;;23.10;41.60;;;;;;6100886;28;88263;-63
2023/01/15 09:51:24;;;;;;;25.13;14.13;;;23.00;41.00;;;;;;6106166;28;85874;-65
2023/01/15 09:54:25;;;;;;;24.15;12.95;;;23.00;41.40;;;;;;6104915;28;83739;-66
2023/01/15 09:57:25;;;;;;;20.20;11.13;;;23.00;41.10;;;;;;6107072;28;84150;-66
2023/01/15 10:00:26;;;;;;;27.63;13.57;;;23.00;41.40;;;;;;6105730;28;84191;-66
2023/01/15 10:03:27;;;;;;;17.67;10.45;;;23.00;41.30;;;;;;6098683;28;85255;-66
2023/01/15 10:06:28;;;;;;;21.80;10.52;;;23.00;41.50;;;;;;6094247;28;84450;-63
2023/01/15 10:09:30;;;;;;;15.38;9.85;;;23.00;41.50;;;;;;6082356;28;84916;-64
2023/01/15 10:12:38;;;;;;;19.02;10.43;;;23.00;41.20;;;;;;6084457;28;82376;-63
2023/01/15 10:15:39;;;;;;;16.15;8.73;;;23.00;41.20;;;;;;6080662;28;83461;-65
2023/01/15 10:18:42;;;;;;;16.10;8.98;;;23.00;41.20;;;;;;6086259;28;83538;-58
2023/01/15 10:21:43;;;;;;;14.73;8.73;;;23.10;41.20;;;;;;6083549;28;84991;-58
2023/01/15 10:24:43;;;;;;;12.57;8.23;;;23.10;41.10;;;;;;6084854;28;81112;-58
2023/01/15 10:27:44;;;;;;;13.00;7.55;;;23.00;41.00;;;;;;6087269;28;81358;-57
2023/01/15 10:30:45;;;;;;;15.25;8.63;;;23.00;40.80;;;;;;6082989;28;80320;-58
2023/01/15 10:33:45;;;;;;;13.85;7.32;;;23.00;41.00;;;;;;6084439;28;81510;-57
2023/01/15 10:36:46;;;;;;;10.82;6.50;;;23.00;40.90;;;;;;6087097;28;80206;-57
2023/01/15 10:39:47;;;;;;;12.63;6.88;;;23.00;40.80;;;;;;6084606;28;85189;-55
2023/01/15 10:42:48;;;;;;;9.98;6.50;;;23.00;40.80;;;;;;6087111;28;81286;-56
2023/01/15 10:45:48;;;;;;;11.27;5.63;;;23.10;40.90;;;;;;6086678;28;80547;-57
2023/01/15 10:48:49;;;;;;;8.55;5.47;;;23.10;41.70;;;;;;6085050;28;81019;-57
2023/01/15 10:51:49;;;;;;;10.88;5.60;;;23.10;41.00;;;;;;6083814;28;81172;-56
2023/01/15 10:54:50;;;;;;;7.70;5.07;;;23.10;41.00;;;;;;6090689;28;80340;-58
2023/01/15 10:57:50;;;;;;;9.77;6.22;;;23.10;41.00;;;;;;6090056;28;82939;-58
2023/01/15 11:00:51;;;;;;;10.73;5.30;;;23.10;41.00;;;;;;6091369;28;80851;-58
2023/01/15 11:03:51;;;;;;;13.35;5.78;;;23.10;40.90;;;;;;6098940;28;84081;-62
2023/01/15 11:06:52;;;;;;;8.43;5.18;;;23.10;41.00;;;;;;6095286;28;81912;-58
2023/01/15 11:09:53;;;;;;;8.60;4.88;;;23.10;41.30;;;;;;6088615;28;81665;-58
2023/01/15 11:19:35;;;;;;;10.82;4.75;;;23.10;40.90;;;;;;6092730;28;81136;-58
2023/01/15 11:19:43;;;;;;;18.23;4.57;;;23.10;40.80;;;;;;6092110;28;80563;-58
2023/01/15 11:22:44;;;;;;;7.30;4.25;;;23.10;40.50;;;;;;6093655;28;80636;-58
2023/01/15 11:25:44;;;;;;;8.00;4.82;;;23.10;40.50;;;;;;6093511;28;80957;-59
2023/01/15 11:28:45;;;;;;;5.88;4.10;;;23.10;40.60;;;;;;6102682;28;80912;-58
2023/01/15 11:31:46;;;;;;;8.65;3.80;;;23.00;40.50;;;;;;6108859;28;87217;-59
2023/01/15 11:34:46;;;;;;;6.50;3.72;;;23.00;40.20;;;;;;6085153;28;81540;-59
2023/01/15 11:37:47;;;;;;;9.13;4.28;;;23.00;39.80;;;;;;6102735;28;82849;-60
2023/01/15 11:40:47;;;;;;;6.05;3.80;;;23.00;40.50;;;;;;6081923;28;80678;-60
2023/01/15 11:50:42;;;;;;;7.38;4.28;;;23.00;41.30;;;;;;6110895;28;81372;-55
2023/01/15 11:53:45;;;;;;;10.10;4.25;;;23.00;41.80;;;;;;6099058;28;84942;-56
2023/01/15 11:56:45;;;;;;;10.98;4.18;;;23.00;43.50;;;;;;6098348;28;81003;-59
2023/01/15 11:59:46;;;;;;;9.57;4.15;;;23.00;44.00;;;;;;6094538;28;83232;-56
2023/01/15 12:02:47;;;;;;;8.15;3.90;;;23.00;45.10;;;;;;6081546;28;85234;-55
2023/01/15 12:05:48;;;;;;;7.30;4.22;;;23.10;46.10;;;;;;6089105;28;80654;-59
2023/01/15 12:08:50;;;;;;;7.85;3.88;;;23.10;46.50;;;;;;6086686;28;82346;-58
2023/01/15 12:11:50;;;;;;;5.20;3.17;;;23.00;46.90;;;;;;6081848;28;81033;-59
2023/01/15 12:14:51;;;;;;;8.35;3.78;;;23.10;47.60;;;;;;6087464;28;82471;-60
2023/01/15 12:17:51;;;;;;;5.95;3.40;;;23.10;47.90;;;;;;6090522;28;80362;-57
2023/01/15 12:20:52;;;;;;;7.05;3.00;;;23.10;48.00;;;;;;6081806;28;82616;-57
2023/01/15 12:23:55;;;;;;;9.23;3.40;;;23.10;47.20;;;;;;6104917;28;81860;-57
2023/01/15 12:26:56;;;;;;;6.72;3.63;;;23.10;47.20;;;;;;6107633;28;81457;-57
2023/01/15 12:29:56;;;;;;;5.05;3.40;;;23.20;47.10;;;;;;6091537;28;82404;-57
2023/01/15 12:32:57;;;;;;;5.32;2.95;;;23.20;46.90;;;;;;6090698;28;83610;-57
2023/01/15 12:35:58;;;;;;;6.53;3.33;;;23.20;46.60;;;;;;6094866;28;82099;-57
2023/01/15 12:38:58;;;;;;;5.65;2.85;;;23.10;46.20;;;;;;6102598;28;80654;-56
2023/01/15 12:45:18;;;;;;;8.50;2.85;;;23.10;45.90;;;;;;6098383;28;85199;-59
2023/01/15 12:48:18;;;;;;;6.10;3.05;;;23.10;46.20;;;;;;6083567;28;85564;-58
2023/01/15 12:51:19;;;;;;;8.05;2.95;;;23.10;46.90;;;;;;6080184;28;81748;-57
2023/01/15 12:54:19;;;;;;;26.67;12.95;;;23.10;46.90;;;;;;6088628;28;81350;-57
2023/01/15 12:57:20;;;;;;;34.97;18.08;;;23.10;46.50;;;;;;6086835;28;85156;-56
2023/01/15 13:00:21;;;;;;;83.00;45.40;;;23.10;46.70;;;;;;6090788;28;83223;-59
2023/01/15 13:03:22;;;;;;;152.98;84.32;;;23.10;46.50;;;;;;6088762;28;85665;-58
2023/01/15 13:06:24;;;;;;;168.50;96.90;;;23.10;46.40;;;;;;6086427;28;85432;-58
2023/01/15 13:09:25;;;;;;;183.68;101.25;;;23.10;46.50;;;;;;6088100;28;83490;-61
2023/01/15 13:12:25;;;;;;;176.70;94.20;;;23.10;46.10;;;;;;6084234;28;85565;-60
2023/01/15 13:15:26;;;;;;;165.52;89.20;;;23.10;46.20;;;;;;6079736;28;84171;-61
2023/01/15 13:18:27;;;;;;;130.70;68.68;;;23.00;45.70;;;;;;6079424;28;87912;-60
2023/01/15 13:21:28;;;;;;;120.40;62.30;;;23.10;46.00;;;;;;6086150;28;83882;-59
2023/01/15 13:24:28;;;;;;;100.30;53.25;;;23.10;45.90;;;;;;6081526;28;83711;-60
2023/01/15 13:27:29;;;;;;;85.60;46.28;;;23.10;45.90;;;;;;6083956;28;85200;-61
2023/01/15 13:30:29;;;;;;;88.28;44.70;;;23.10;45.90;;;;;;6070934;28;86026;-61
2023/01/15 13:33:30;;;;;;;70.18;37.60;;;23.00;45.80;;;;;;6079106;28;86650;-53
2023/01/15 13:36:30;;;;;;;66.70;36.60;;;23.10;45.80;;;;;;6088967;28;84881;-52
2023/01/15 13:39:31;;;;;;;58.05;32.28;;;23.00;46.00;;;;;;6081796;28;83231;-50
2023/01/15 13:42:31;;;;;;;54.45;29.52;;;23.10;46.00;;;;;;6077523;28;85424;-50
2023/01/15 13:45:32;;;;;;;49.72;28.65;;;23.00;45.90;;;;;;6087409;28;84744;-53
2023/01/15 13:48:32;;;;;;;50.17;26.88;;;23.00;45.90;;;;;;6084857;28;91509;-53
2023/01/15 13:51:41;;;;;;;45.05;24.13;;;23.00;46.00;;;;;;6091588;28;84024;-53
2023/01/15 13:54:42;;;;;;;40.22;20.75;;;23.00;46.00;;;;;;6087360;28;83441;-52
2023/01/15 13:57:43;;;;;;;35.15;20.23;;;23.10;45.90;;;;;;6084398;28;83911;-53
2023/01/15 14:00:44;;;;;;;43.35;20.65;;;23.10;45.70;;;;;;6082413;28;84469;-56
2023/01/15 14:03:44;;;;;;;39.17;18.15;;;23.10;45.70;;;;;;6083775;28;84290;-53
2023/01/15 14:06:45;;;;;;;29.88;17.30;;;23.10;45.50;;;;;;6084617;28;88019;-53
2023/01/15 14:09:45;;;;;;;28.45;16.33;;;23.10;45.40;;;;;;6091770;28;85016;-62
2023/01/15 14:12:46;;;;;;;26.83;15.63;;;23.00;45.40;;;;;;6089035;28;85287;-60
2023/01/15 14:15:46;;;;;;;28.10;16.27;;;23.00;45.10;;;;;;6091905;28;82974;-63
2023/01/15 14:18:47;;;;;;;26.02;15.35;;;23.00;45.10;;;;;;6094594;28;83167;-59
2023/01/15 14:21:47;;;;;;;24.00;13.07;;;23.00;45.20;;;;;;6085887;28;83088;-63
2023/01/15 14:24:48;;;;;;;26.38;13.27;;;23.00;45.10;;;;;;6092620;28;83158;-59
2023/01/15 14:27:49;;;;;;;23.13;12.98;;;23.00;45.40;;;;;;6088278;28;84318;-60
2023/01/15 14:30:50;;;;;;;19.85;11.65;;;23.00;45.50;;;;;;6081553;28;83494;-60
2023/01/15 14:33:50;;;;;;;24.13;11.68;;;23.00;46.10;;;;;;6092750;28;85962;-58
2023/01/15 14:36:51;;;;;;;22.00;10.85;;;23.00;45.80;;;;;;6084799;28;84192;-56
2023/01/15 14:39:51;;;;;;;19.85;9.85;;;23.00;45.60;;;;;;6085611;28;83920;-58
2023/01/15 14:43:01;;;;;;;16.05;9.23;;;23.00;45.40;;;;;;6078763;28;86172;-58
2023/01/15 14:46:02;;;;;;;18.63;9.10;;;23.00;45.30;;;;;;6077578;28;80183;-57
2023/01/15 14:49:03;;;;;;;14.90;9.07;;;23.00;45.30;;;;;;6086822;28;80931;-56
2023/01/15 14:52:03;;;;;;;23.55;11.05;;;23.00;45.40;;;;;;6082856;28;82257;-57
2023/01/15 14:55:04;;;;;;;20.67;10.38;;;23.00;45.70;;;;;;6088792;28;83599;-54
2023/01/15 14:58:07;;;;;;;14.70;9.48;;;23.00;46.00;;;;;;6091271;28;84442;-56
2023/01/15 15:01:07;;;;;;;15.20;8.70;;;23.00;45.80;;;;;;6091767;28;83319;-59
2023/01/15 15:04:08;;;;;;;15.35;8.00;;;23.00;46.00;;;;;;6090015;28;80830;-57
2023/01/15 15:07:08;;;;;;;14.43;8.18;;;23.00;46.30;;;;;;6074612;28;83168;-52
2023/01/15 15:10:12;;;;;;;15.13;7.78;;;23.00;46.40;;;;;;6082060;28;80435;-55
2023/01/15 15:13:14;;;;;;;15.45;7.20;;;23.00;46.40;;;;;;6084989;28;81737;-51
2023/01/15 15:16:14;;;;;;;28.40;7.45;;;23.10;46.60;;;;;;6084277;28;89741;-56
2023/01/15 15:19:15;;;;;;;15.43;6.32;;;23.10;46.90;;;;;;6088325;28;80420;-54
2023/01/15 15:22:15;;;;;;;11.27;6.45;;;23.10;46.50;;;;;;6092170;28;81239;-52
2023/01/15 15:25:16;;;;;;;9.23;5.65;;;23.10;46.60;;;;;;6092007;28;81514;-56
2023/01/15 15:28:16;;;;;;;19.52;6.13;;;23.10;46.50;;;;;;6094265;28;81173;-54
2023/01/15 15:31:17;;;;;;;9.00;5.38;;;23.10;46.50;;;;;;6096908;28;82320;-55
2023/01/15 15:34:18;;;;;;;13.02;5.00;;;23.10;46.40;;;;;;6097831;28;80710;-56
2023/01/15 15:37:18;;;;;;;8.02;4.90;;;23.10;46.20;;;;;;6097119;28;83282;-58
2023/01/15 15:40:19;;;;;;;9.23;5.03;;;23.10;46.40;;;;;;6101960;28;81296;-58
2023/01/15 15:49:58;;;;;;;7.10;4.50;;;23.20;46.10;;;;;;6094988;28;81217;-56
2023/01/15 15:53:03;;;;;;;5.47;3.90;;;23.10;45.70;;;;;;6091512;28;80998;-52
2023/01/15 15:56:03;;;;;;;5.07;3.83;;;23.20;45.90;;;;;;6093089;28;84004;-56
2023/01/15 15:59:04;;;;;;;7.38;4.18;;;23.20;45.70;;;;;;6096485;28;83004;-58
2023/01/15 16:02:04;;;;;;;8.20;4.18;;;23.20;45.80;;;;;;6091850;28;80727;-58
2023/01/15 16:05:05;;;;;;;6.93;4.10;;;23.10;46.10;;;;;;6090749;28;80503;-57
2023/01/15 16:08:05;;;;;;;6.88;3.88;;;23.20;45.70;;;;;;6104562;28;82603;-58
2023/01/15 16:11:06;;;;;;;5.40;3.88;;;23.10;45.60;;;;;;6097515;28;81937;-57
2023/01/15 16:14:07;;;;;;;5.10;3.55;;;23.10;45.60;;;;;;6102654;28;80822;-59
2023/01/15 16:17:07;;;;;;;4.88;3.60;;;23.10;45.70;;;;;;6100244;28;85381;-57
2023/01/15 16:20:08;;;;;;;5.85;3.53;;;23.00;45.80;;;;;;6100016;28;81470;-58